Time;durP1;ratioP1;P1;durP2;ratioP2;P2;SDS_P1;SDS_P2;PMS_P1;PMS_P2;Temp;Humidity;BMP_temperature;BMP_pressure;BME280_temperature;BME280_humidity;BME280_pressure;Samples;Min_cycle;Max_cycle;Signal;HPM_P1;HPM_P2
2021/07/28 00:00:21;;;;;;;15.38;11.70;;;;;;;26.55;100.00;96101.56;4971269;28;20082;-54
2021/07/28 00:02:51;;;;;;;16.63;11.82;;;;;;;26.34;100.00;96100.50;4972481;28;20081;-54
2021/07/28 00:05:20;;;;;;;17.70;11.90;;;;;;;26.35;100.00;96104.84;4976100;28;20116;-54
2021/07/28 00:07:48;;;;;;;14.82;11.48;;;;;;;26.27;100.00;96111.50;4973320;28;20085;-55
2021/07/28 00:10:17;;;;;;;11.88;10.30;;;;;;;26.33;100.00;96127.81;4978374;28;20063;-51
2021/07/28 00:12:45;;;;;;;14.40;10.52;;;;;;;26.75;100.00;96119.91;4977079;28;20089;-51
2021/07/28 00:15:14;;;;;;;15.18;10.60;;;;;;;25.88;100.00;96134.25;4965597;28;20062;-52
2021/07/28 00:17:45;;;;;;;14.57;10.93;;;;;;;26.45;100.00;96128.47;4972441;28;20089;-52
2021/07/28 00:20:22;;;;;;;12.00;10.13;;;;;;;26.52;100.00;96126.41;4972088;28;20893;-52
2021/07/28 00:25:37;;;;;;;15.15;11.10;;;;;;;26.85;100.00;96130.03;4973474;28;20317;-57
2021/07/28 00:28:05;;;;;;;11.98;10.60;;;;;;;26.79;100.00;96134.56;4972654;28;20081;-54
2021/07/28 00:30:34;;;;;;;12.48;10.70;;;;;;;26.06;100.00;96139.38;4976814;28;20085;-52
2021/07/28 00:33:02;;;;;;;14.70;10.88;;;;;;;26.22;100.00;96137.66;4971246;28;20058;-53
2021/07/28 00:35:32;;;;;;;15.20;11.77;;;;;;;26.56;100.00;96143.78;4969821;28;20070;-51
2021/07/28 00:38:05;;;;;;;12.43;10.68;;;;;;;27.02;100.00;96148.84;4976165;28;20098;-55
2021/07/28 00:40:34;;;;;;;13.68;10.52;;;;;;;26.22;100.00;96149.31;4976701;28;21175;-53
2021/07/28 00:43:12;;;;;;;11.93;9.60;;;;;;;27.08;100.00;96153.22;4969272;28;20073;-54
2021/07/28 00:45:41;;;;;;;11.55;9.48;;;;;;;26.17;100.00;96151.94;4972596;28;20062;-52
2021/07/28 00:48:09;;;;;;;15.30;9.90;;;;;;;26.79;100.00;96145.38;4973281;28;20418;-54
2021/07/28 00:50:39;;;;;;;10.60;9.18;;;;;;;26.60;100.00;96144.06;4969605;28;20566;-55
2021/07/28 00:53:16;;;;;;;14.10;9.77;;;;;;;26.98;100.00;96146.66;4972423;28;20093;-55
2021/07/28 00:55:45;;;;;;;11.50;9.73;;;;;;;26.95;100.00;96149.06;4974117;28;20526;-55
2021/07/28 00:58:14;;;;;;;15.77;10.10;;;;;;;27.14;100.00;96160.34;4976245;28;20093;-54
2021/07/28 01:00:42;;;;;;;13.93;10.38;;;;;;;26.35;100.00;96152.69;4968886;28;20059;-51
2021/07/28 01:03:11;;;;;;;16.30;10.88;;;;;;;26.84;100.00;96161.69;4969938;28;20483;-54
2021/07/28 01:05:41;;;;;;;14.27;11.95;;;;;;;27.43;100.00;96145.44;4970527;28;20070;-55
2021/07/28 01:08:10;;;;;;;15.93;13.02;;;;;;;26.77;100.00;96141.28;4972925;28;20084;-56
2021/07/28 01:10:39;;;;;;;17.48;13.18;;;;;;;25.99;100.00;96133.34;4973684;28;20091;-54
2021/07/28 01:13:08;;;;;;;16.90;12.10;;;;;;;25.40;100.00;96128.41;4971493;28;20644;-54
2021/07/28 01:15:42;;;;;;;17.05;12.30;;;;;;;25.02;100.00;96126.44;4973525;28;20501;-55
2021/07/28 01:18:13;;;;;;;18.23;11.68;;;;;;;25.65;100.00;96121.75;4971375;28;20073;-52
2021/07/28 01:20:44;;;;;;;15.25;10.75;;;;;;;25.78;100.00;96124.91;4968239;28;20412;-57
2021/07/28 01:23:20;;;;;;;15.57;10.57;;;;;;;25.31;100.00;96116.38;4963322;28;20171;-53
2021/07/28 01:25:50;;;;;;;13.63;10.45;;;;;;;25.31;100.00;96119.09;4973495;28;20085;-56
2021/07/28 01:28:20;;;;;;;15.07;10.63;;;;;;;25.01;100.00;96117.47;4966518;28;20059;-58
2021/07/28 01:30:58;;;;;;;13.57;10.38;;;;;;;25.15;100.00;96117.19;4970247;28;20074;-58
2021/07/28 01:33:27;;;;;;;12.13;9.65;;;;;;;25.50;100.00;96109.66;4969276;28;20063;-57
2021/07/28 01:35:55;;;;;;;12.57;10.75;;;;;;;25.10;100.00;96104.41;4967688;28;20071;-59
2021/07/28 01:38:26;;;;;;;13.02;10.38;;;;;;;24.90;100.00;96099.50;4961502;28;20122;-54
2021/07/28 01:40:56;;;;;;;11.57;10.38;;;;;;;24.94;100.00;96095.25;4976443;28;20276;-56
2021/07/28 01:43:27;;;;;;;15.10;10.85;;;;;;;24.52;100.00;96092.91;4968800;28;20421;-52
2021/07/28 01:45:56;;;;;;;12.25;9.68;;;;;;;24.49;100.00;96092.56;4964827;28;20086;-55
2021/07/28 01:48:25;;;;;;;11.13;9.93;;;;;;;24.74;100.00;96086.81;4964882;28;20058;-55
2021/07/28 01:50:54;;;;;;;14.13;9.30;;;;;;;24.77;100.00;96086.31;4965037;28;20074;-57
2021/07/28 01:53:25;;;;;;;15.88;9.98;;;;;;;24.82;100.00;96081.03;4966428;28;20075;-56
2021/07/28 01:55:55;;;;;;;12.23;9.43;;;;;;;25.14;100.00;96070.50;4964403;28;20070;-53
2021/07/28 01:58:23;;;;;;;10.63;8.25;;;;;;;24.76;100.00;96077.41;4969446;28;20074;-56
2021/07/28 02:00:52;;;;;;;10.88;8.15;;;;;;;24.70;100.00;96085.66;4971061;28;20510;-57
2021/07/28 02:03:21;;;;;;;11.55;8.02;;;;;;;25.41;100.00;96088.72;4966518;28;20222;-54
2021/07/28 02:05:49;;;;;;;19.15;7.95;;;;;;;26.00;100.00;96089.84;4970042;28;20074;-56
2021/07/28 02:08:19;;;;;;;15.30;8.52;;;;;;;25.39;100.00;96088.16;4970094;28;20081;-55
2021/07/28 02:10:49;;;;;;;10.27;7.97;;;;;;;25.97;100.00;96092.22;4967663;28;20083;-57
2021/07/28 02:13:19;;;;;;;10.10;8.10;;;;;;;25.64;100.00;96106.63;4972205;28;20101;-53
2021/07/28 02:15:49;;;;;;;9.13;7.20;;;;;;;25.25;100.00;96110.09;4966299;28;20038;-56
2021/07/28 02:18:17;;;;;;;12.38;8.10;;;;;;;25.71;100.00;96102.69;4962006;28;20070;-55
2021/07/28 02:20:46;;;;;;;12.68;7.95;;;;;;;25.15;100.00;96096.44;4970616;28;20543;-55
2021/07/28 02:23:14;;;;;;;14.20;8.13;;;;;;;25.94;100.00;96087.31;4969159;28;20081;-56
2021/07/28 02:25:42;;;;;;;10.85;7.50;;;;;;;25.90;100.00;96094.28;4972329;28;20129;-54
2021/07/28 02:28:13;;;;;;;10.82;8.07;;;;;;;25.51;100.00;96096.97;4976273;28;20470;-53
2021/07/28 02:30:41;;;;;;;11.85;8.00;;;;;;;25.68;100.00;96103.16;4978009;28;20074;-54
2021/07/28 02:33:10;;;;;;;10.90;7.53;;;;;;;25.76;100.00;96101.91;4966315;28;20066;-56
2021/07/28 02:35:38;;;;;;;10.55;8.00;;;;;;;26.23;100.00;96093.34;4970492;28;20063;-52
2021/07/28 02:38:07;;;;;;;10.30;7.95;;;;;;;25.41;100.00;96099.53;4977495;28;20086;-57
2021/07/28 02:40:36;;;;;;;10.65;7.63;;;;;;;25.10;100.00;96101.72;4984248;28;20086;-55
2021/07/28 02:43:04;;;;;;;12.88;8.18;;;;;;;24.86;100.00;96095.66;4973142;28;20073;-54
2021/07/28 02:45:34;;;;;;;10.32;7.70;;;;;;;25.17;100.00;96107.81;4975774;28;20078;-57
2021/07/28 02:48:06;;;;;;;10.70;7.72;;;;;;;25.71;100.00;96104.56;4970768;28;20077;-58
2021/07/28 02:50:34;;;;;;;11.65;7.35;;;;;;;25.08;100.00;96098.44;4963066;28;20062;-56
2021/07/28 02:53:03;;;;;;;14.57;8.05;;;;;;;25.36;100.00;96086.75;4965273;28;20526;-56
2021/07/28 02:55:31;;;;;;;13.40;8.10;;;;;;;24.74;100.00;96089.50;4966250;28;20089;-55
2021/07/28 02:58:00;;;;;;;10.68;7.70;;;;;;;24.74;100.00;96087.66;4969179;28;20066;-59
2021/07/28 03:00:29;;;;;;;10.98;7.85;;;;;;;25.59;100.00;96104.66;4967194;28;20070;-58
2021/07/28 03:02:58;;;;;;;11.82;8.10;;;;;;;25.51;100.00;96096.97;4969656;28;20120;-56
2021/07/28 03:05:27;;;;;;;11.35;7.82;;;;;;;26.04;100.00;96098.25;4968905;28;20074;-54
2021/07/28 03:07:55;;;;;;;10.95;8.20;;;;;;;25.39;100.00;96090.84;4971381;28;20074;-56
2021/07/28 03:10:24;;;;;;;9.48;7.68;;;;;;;25.90;100.00;96083.50;4964434;28;20546;-56
2021/07/28 03:12:52;;;;;;;9.77;7.90;;;;;;;25.66;100.00;96099.06;4964003;28;20078;-56
2021/07/28 03:15:21;;;;;;;11.00;7.60;;;;;;;26.20;100.00;96097.38;4972865;28;20078;-56
2021/07/28 03:17:49;;;;;;;10.82;7.57;;;;;;;26.12;100.00;96097.84;4967499;28;20067;-54
2021/07/28 03:20:19;;;;;;;13.18;7.63;;;;;;;26.27;100.00;96097.19;4967831;28;20082;-56
2021/07/28 03:22:47;;;;;;;11.52;8.98;;;;;;;26.23;100.00;96106.88;4970739;28;20078;-58
2021/07/28 03:25:16;;;;;;;8.70;7.30;;;;;;;25.33;100.00;96107.00;4968367;28;20074;-57
2021/07/28 03:27:44;;;;;;;13.93;7.25;;;;;;;24.92;100.00;96101.97;4968957;28;20066;-52
2021/07/28 03:30:13;;;;;;;11.45;8.55;;;;;;;24.96;100.00;96098.53;4966643;28;20070;-53
2021/07/28 03:32:41;;;;;;;9.32;7.22;;;;;;;25.40;100.00;96090.63;4974731;28;20062;-51
2021/07/28 03:35:10;;;;;;;10.77;7.70;;;;;;;25.45;100.00;96100.66;4965433;28;20078;-54
2021/07/28 03:37:40;;;;;;;9.35;7.55;;;;;;;25.30;100.00;96102.06;4975112;28;20543;-51
2021/07/28 03:40:09;;;;;;;13.25;8.13;;;;;;;26.09;100.00;96097.53;4972025;28;20461;-52
2021/07/28 03:42:38;;;;;;;12.35;8.15;;;;;;;25.51;100.00;96102.38;4974650;28;20074;-53
2021/07/28 03:45:07;;;;;;;12.02;8.38;;;;;;;25.98;100.00;96100.09;4973388;28;20069;-50
2021/07/28 03:47:35;;;;;;;12.98;8.48;;;;;;;25.94;100.00;96103.53;4973679;28;20070;-54
2021/07/28 03:50:07;;;;;;;14.77;8.52;;;;;;;26.46;100.00;96100.34;4979220;28;20081;-53
2021/07/28 03:52:35;;;;;;;13.40;8.73;;;;;;;26.26;100.00;96106.38;4975600;28;20165;-50
2021/07/28 03:55:06;;;;;;;12.23;8.43;;;;;;;25.71;100.00;96116.19;4970890;28;20078;-55
2021/07/28 03:57:35;;;;;;;13.18;8.95;;;;;;;25.92;100.00;96113.78;4973400;28;20078;-55
2021/07/28 04:00:05;;;;;;;13.32;8.70;;;;;;;26.21;100.00;96106.28;4977462;28;20081;-53
2021/07/28 04:02:33;;;;;;;13.25;9.57;;;;;;;25.71;100.00;96108.06;4966690;28;20103;-53
2021/07/28 04:05:03;;;;;;;13.05;9.02;;;;;;;25.59;100.00;96099.25;4976492;28;20470;-49
2021/07/28 04:07:31;;;;;;;13.48;9.35;;;;;;;25.80;100.00;96094.97;4980621;28;21375;-54
2021/07/28 04:10:00;;;;;;;12.70;8.88;;;;;;;26.05;100.00;96094.50;4969717;28;20710;-51
2021/07/28 04:12:30;;;;;;;18.20;9.38;;;;;;;25.08;100.00;96093.03;4970400;28;20494;-52
2021/07/28 04:14:59;;;;;;;10.90;8.27;;;;;;;25.96;100.00;96085.19;4976935;28;20067;-56
2021/07/28 04:17:27;;;;;;;8.90;8.00;;;;;;;26.11;100.00;96082.66;4974180;28;20521;-51
2021/07/28 04:19:56;;;;;;;10.57;8.00;;;;;;;26.45;100.00;96087.91;4972501;28;20080;-55
2021/07/28 04:22:43;;;;;;;11.15;8.13;;;;;;;25.27;100.00;96093.66;5018851;23;20059;-51
2021/07/28 04:25:12;;;;;;;11.32;8.13;;;;;;;25.72;100.00;96104.31;5044542;28;20057;-52
2021/07/28 04:27:42;;;;;;;12.30;7.90;;;;;;;25.46;100.00;96103.09;5045783;28;20064;-50
2021/07/28 04:30:12;;;;;;;12.00;7.32;;;;;;;25.17;100.00;96096.19;5043859;28;20065;-54
2021/07/28 04:32:41;;;;;;;9.63;7.43;;;;;;;25.49;100.00;96102.63;5038738;28;20053;-52
2021/07/28 04:35:09;;;;;;;10.90;6.50;;;;;;;25.31;100.00;96100.19;5026776;28;20491;-55
2021/07/28 04:37:38;;;;;;;10.25;6.88;;;;;;;25.18;100.00;96100.53;5028507;28;20080;-50
2021/07/28 04:40:07;;;;;;;10.93;6.57;;;;;;;25.05;100.00;96097.06;5022608;28;20081;-48
2021/07/28 04:42:36;;;;;;;10.57;6.30;;;;;;;25.51;100.00;96094.28;5023316;28;20072;-55
2021/07/28 04:45:07;;;;;;;11.07;6.18;;;;;;;25.36;100.00;96102.94;5026260;28;20068;-51
2021/07/28 04:47:35;;;;;;;8.57;6.15;;;;;;;24.89;100.00;96108.66;5027009;28;20075;-50
2021/07/28 04:50:04;;;;;;;10.48;6.53;;;;;;;24.80;100.00;96105.53;5026133;28;20077;-53
2021/07/28 04:52:33;;;;;;;8.73;6.20;;;;;;;25.08;100.00;96103.84;5025331;28;20527;-52
2021/07/28 04:55:01;;;;;;;8.50;6.05;;;;;;;25.64;100.00;96104.75;5026292;28;20061;-51
2021/07/28 04:57:30;;;;;;;8.95;6.72;;;;;;;25.57;100.00;96096.00;5026041;28;20073;-53
2021/07/28 04:59:59;;;;;;;11.07;6.60;;;;;;;25.78;100.00;96097.09;5025410;28;20084;-50
2021/07/28 05:02:28;;;;;;;10.85;6.50;;;;;;;26.57;100.00;96102.16;5026866;28;20072;-53
2021/07/28 05:04:57;;;;;;;10.68;6.80;;;;;;;26.24;100.00;96098.50;5027537;28;20111;-52
2021/07/28 05:07:25;;;;;;;9.85;6.53;;;;;;;25.57;100.00;96101.41;5026174;28;20073;-54
2021/07/28 05:09:54;;;;;;;9.75;6.70;;;;;;;26.81;100.00;96097.25;5026267;28;20057;-51
2021/07/28 05:12:23;;;;;;;8.02;6.75;;;;;;;26.35;100.00;96091.31;5021131;28;20076;-51
2021/07/28 05:14:51;;;;;;;10.02;6.05;;;;;;;26.84;100.00;96098.59;5026128;28;20080;-55
2021/07/28 05:17:20;;;;;;;10.35;6.55;;;;;;;27.01;100.00;96096.59;5024411;28;20069;-54
2021/07/28 05:19:53;;;;;;;8.35;5.97;;;;;;;26.95;100.00;96101.16;5026521;28;20073;-55
2021/07/28 05:22:21;;;;;;;11.75;6.22;;;;;;;26.73;100.00;96092.28;5026389;28;20073;-55
2021/07/28 05:24:52;;;;;;;7.80;6.30;;;;;;;27.45;100.00;96093.72;5024764;28;20065;-52
2021/07/28 05:27:20;;;;;;;;;;;;;;;27.08;100.00;96105.34;5026770;28;20074;-51
2021/07/28 05:29:48;;;;;;;10.07;6.13;;;;;;;27.64;100.00;96092.22;5027233;28;19956;-51
2021/07/28 05:32:17;;;;;;;7.28;5.60;;;;;;;26.90;100.00;96095.69;5025556;28;20088;-50
2021/07/28 05:34:45;;;;;;;8.65;6.10;;;;;;;27.48;100.00;96095.09;5028415;28;20081;-52
2021/07/28 05:37:15;;;;;;;7.80;5.75;;;;;;;27.45;100.00;96091.81;5024230;28;20084;-56
2021/07/28 05:39:43;;;;;;;10.40;6.13;;;;;;;28.18;100.00;96091.13;5025415;28;20401;-52
2021/07/28 05:42:12;;;;;;;8.77;5.95;;;;;;;27.49;100.00;96078.56;5028748;28;20068;-49
2021/07/28 05:44:40;;;;;;;8.32;5.57;;;;;;;28.16;100.00;96072.44;5030127;28;20065;-55
2021/07/28 05:47:09;;;;;;;8.27;5.78;;;;;;;28.33;100.00;96085.78;5029777;28;20069;-55
2021/07/28 05:49:37;;;;;;;12.25;6.15;;;;;;;28.39;100.00;96084.75;5025941;28;20105;-55
2021/07/28 05:52:06;;;;;;;10.02;5.93;;;;;;;28.58;100.00;96082.34;5023483;28;20490;-57
2021/07/28 05:54:36;;;;;;;6.97;5.63;;;;;;;28.30;100.00;96083.59;5029282;28;20061;-52
2021/07/28 05:57:05;;;;;;;6.63;5.40;;;;;;;28.29;100.00;96090.13;5030149;28;20076;-52
2021/07/28 05:59:33;;;;;;;8.20;5.90;;;;;;;27.99;100.00;96087.28;5028642;28;20065;-54
2021/07/28 06:02:03;;;;;;;6.40;5.22;;;;;;;27.65;100.00;96101.97;5027003;28;20483;-56
2021/07/28 06:04:31;;;;;;;7.80;5.30;;;;;;;28.74;100.00;96085.91;5030228;28;20301;-51
2021/07/28 06:07:00;;;;;;;8.93;5.50;;;;;;;27.97;100.00;96094.84;5029860;28;20531;-55
2021/07/28 06:09:28;;;;;;;8.32;5.40;;;;;;;27.45;100.00;96091.00;5029295;28;20069;-52
2021/07/28 06:11:58;;;;;;;7.07;5.30;;;;;;;28.01;100.00;96094.06;5028633;28;20061;-52
2021/07/28 06:14:27;;;;;;;6.70;5.00;;;;;;;27.85;100.00;96095.88;5028975;28;20072;-55
2021/07/28 06:16:55;;;;;;;8.25;5.60;;;;;;;27.18;100.00;96108.13;5024652;28;20124;-55
2021/07/28 06:19:24;;;;;;;7.32;4.65;;;;;;;28.38;100.00;96084.97;5026410;28;20083;-55
2021/07/28 06:21:52;;;;;;;8.98;5.32;;;;;;;28.67;100.00;96081.84;5028274;28;20472;-55
2021/07/28 06:24:20;;;;;;;8.57;5.60;;;;;;;28.44;100.00;96078.50;5025410;28;20107;-56
2021/07/28 06:26:49;;;;;;;7.53;5.60;;;;;;;28.34;100.00;96073.03;5027390;28;20467;-55
2021/07/28 06:29:21;;;;;;;12.88;5.65;;;;;;;29.55;100.00;96081.56;5029056;28;20470;-54
2021/07/28 06:31:49;;;;;;;8.05;5.32;;;;;;;29.51;100.00;96092.16;5025402;28;20081;-51
2021/07/28 06:34:17;;;;;;;7.60;5.40;;;;;;;28.70;100.00;96084.81;5028567;28;20065;-58
2021/07/28 06:36:46;;;;;;;8.13;4.68;;;;;;;29.18;100.00;96085.44;5029070;28;20074;-58
2021/07/28 06:39:15;;;;;;;7.88;4.97;;;;;;;29.65;100.00;96081.59;5029441;28;20475;-53
2021/07/28 06:41:43;;;;;;;6.40;4.93;;;;;;;28.74;100.00;96079.69;5024646;28;20166;-52
2021/07/28 06:44:11;;;;;;;8.30;5.00;;;;;;;30.55;97.82;96085.34;5027671;28;20556;-57
2021/07/28 06:46:41;;;;;;;11.40;5.50;;;;;;;30.31;97.55;96088.72;5031494;28;20085;-52
2021/07/28 06:49:12;;;;;;;6.32;4.22;;;;;;;28.88;100.00;96093.53;5028022;28;20072;-55
2021/07/28 06:51:41;;;;;;;6.43;4.38;;;;;;;28.60;100.00;96095.66;5028324;28;20080;-56
2021/07/28 06:54:09;;;;;;;7.18;4.20;;;;;;;28.29;100.00;96097.44;5028293;28;20544;-56
2021/07/28 06:56:37;;;;;;;9.50;4.65;;;;;;;29.49;100.00;96090.81;5027104;28;20073;-53
2021/07/28 06:59:06;;;;;;;4.85;4.35;;;;;;;29.64;100.00;96085.41;5027962;28;20077;-51
2021/07/28 07:01:34;;;;;;;7.65;5.15;;;;;;;29.60;100.00;96089.75;5031041;28;20092;-56
2021/07/28 07:04:04;;;;;;;7.50;4.60;;;;;;;30.15;100.00;96095.31;5026111;28;20073;-57
2021/07/28 07:06:33;;;;;;;8.93;4.65;;;;;;;30.34;100.00;96090.88;5028608;28;20718;-57
2021/07/28 07:09:01;;;;;;;5.88;4.85;;;;;;;30.46;96.08;96093.28;5028295;28;20076;-52
2021/07/28 07:11:30;;;;;;;7.18;5.30;;;;;;;31.24;88.28;96092.50;5027378;28;20069;-52
2021/07/28 07:13:58;;;;;;;6.10;4.57;;;;;;;30.04;100.00;96092.63;5030607;28;20081;-53
2021/07/28 07:16:27;;;;;;;7.63;5.10;;;;;;;30.51;88.92;96088.63;5028130;28;20499;-55
2021/07/28 07:18:55;;;;;;;6.68;4.80;;;;;;;29.79;96.93;96088.06;5026655;28;20065;-55
2021/07/28 07:21:25;;;;;;;6.65;4.70;;;;;;;29.61;100.00;96094.09;5024844;28;20501;-54
2021/07/28 07:23:54;;;;;;;6.63;4.70;;;;;;;29.05;100.00;96091.41;5027486;28;20095;-55
2021/07/28 07:26:23;;;;;;;7.53;5.30;;;;;;;28.57;100.00;96094.28;5027880;28;20084;-56
2021/07/28 07:28:51;;;;;;;6.22;4.97;;;;;;;29.85;100.00;96088.06;5028553;28;20902;-54
2021/07/28 07:31:20;;;;;;;7.43;5.13;;;;;;;29.94;100.00;96087.22;5028410;28;20057;-53
2021/07/28 07:33:48;;;;;;;8.02;5.43;;;;;;;28.90;100.00;96088.63;5027638;28;20076;-52
2021/07/28 07:36:18;;;;;;;7.50;5.40;;;;;;;28.93;100.00;96085.38;5026875;28;20073;-52
2021/07/28 07:38:48;;;;;;;7.03;5.32;;;;;;;28.78;100.00;96086.19;5028262;28;20084;-53
2021/07/28 07:41:17;;;;;;;8.00;5.70;;;;;;;29.89;98.21;96078.25;5025200;28;20069;-50
2021/07/28 07:43:45;;;;;;;8.77;5.85;;;;;;;29.95;99.44;96075.25;5030114;28;20456;-56
2021/07/28 07:46:13;;;;;;;8.50;6.07;;;;;;;30.28;99.77;96086.56;5027557;28;20084;-50
2021/07/28 07:48:42;;;;;;;8.35;5.80;;;;;;;30.37;98.28;96076.72;5027976;28;20069;-54
2021/07/28 07:51:10;;;;;;;9.65;6.25;;;;;;;30.23;100.00;96075.72;5027366;28;20080;-55
2021/07/28 07:53:39;;;;;;;7.97;6.20;;;;;;;29.42;99.92;96084.84;5026719;28;20073;-53
2021/07/28 07:56:08;;;;;;;9.13;6.65;;;;;;;29.83;96.83;96082.06;5027245;28;20088;-53
2021/07/28 07:58:37;;;;;;;7.60;6.63;;;;;;;30.24;96.75;96074.59;5030539;28;20083;-51
2021/07/28 08:01:08;;;;;;;7.28;6.38;;;;;;;28.94;100.00;96079.69;5020747;28;20041;-54
2021/07/28 08:03:37;;;;;;;7.95;6.25;;;;;;;29.99;99.54;96081.75;5026382;28;20057;-56
2021/07/28 08:06:06;;;;;;;8.48;6.97;;;;;;;29.72;99.65;96090.25;5024147;28;20077;-52
2021/07/28 08:08:35;;;;;;;8.18;6.40;;;;;;;29.42;100.00;96091.13;5026970;28;20130;-50
2021/07/28 08:11:09;;;;;;;11.10;7.05;;;;;;;29.43;97.38;96095.47;5026005;28;20081;-52
2021/07/28 08:13:37;;;;;;;9.40;7.38;;;;;;;29.21;100.00;96094.91;5029320;28;20069;-54
2021/07/28 08:16:10;;;;;;;8.52;6.63;;;;;;;29.48;100.00;96098.16;5021503;28;20519;-52
2021/07/28 08:18:39;;;;;;;11.25;7.57;;;;;;;29.31;100.00;96098.44;5028072;28;20068;-53
2021/07/28 08:21:09;;;;;;;8.80;6.88;;;;;;;29.04;100.00;96095.19;5025835;28;20733;-51
2021/07/28 08:23:38;;;;;;;9.90;7.18;;;;;;;29.31;100.00;96100.34;5023688;28;20065;-53
2021/07/28 08:26:06;;;;;;;9.30;7.20;;;;;;;29.15;100.00;96093.28;5020201;28;20073;-54
2021/07/28 08:28:36;;;;;;;11.55;7.50;;;;;;;29.58;100.00;96091.91;5029916;28;20096;-52
2021/07/28 08:31:04;;;;;;;12.23;6.82;;;;;;;29.35;100.00;96098.69;5025898;28;20057;-54
2021/07/28 08:33:33;;;;;;;10.65;7.40;;;;;;;29.39;100.00;96099.81;5025783;28;20080;-54
2021/07/28 08:36:02;;;;;;;10.82;7.45;;;;;;;28.80;100.00;96092.16;5027287;28;20440;-52
2021/07/28 08:38:32;;;;;;;8.38;6.88;;;;;;;29.25;100.00;96093.28;5026944;28;20061;-56
2021/07/28 08:41:01;;;;;;;9.63;7.60;;;;;;;28.11;100.00;96094.13;5028793;28;20077;-48
2021/07/28 08:43:32;;;;;;;11.93;7.33;;;;;;;28.37;100.00;96099.63;5024406;28;20084;-54
2021/07/28 08:46:03;;;;;;;11.25;7.35;;;;;;;29.00;100.00;96094.09;5027135;28;20076;-55
2021/07/28 08:48:33;;;;;;;8.73;7.22;;;;;;;27.79;100.00;96096.94;5026644;28;20073;-54
2021/07/28 08:51:03;;;;;;;10.63;7.78;;;;;;;28.00;100.00;96100.56;5023433;28;20068;-53
2021/07/28 08:53:32;;;;;;;9.35;7.85;;;;;;;28.06;100.00;96099.50;5021655;28;20073;-55
2021/07/28 08:56:02;;;;;;;11.23;7.53;;;;;;;27.55;100.00;96103.81;5029231;28;20542;-49
2021/07/28 08:58:31;;;;;;;9.38;7.50;;;;;;;26.07;100.00;96115.88;5021782;28;20462;-51
2021/07/28 09:00:59;;;;;;;9.93;7.57;;;;;;;26.04;100.00;96115.28;5025455;28;20073;-54
2021/07/28 09:03:29;;;;;;;9.82;7.80;;;;;;;26.64;100.00;96124.41;5024830;28;20164;-53
2021/07/28 09:06:01;;;;;;;9.57;7.45;;;;;;;26.74;100.00;96118.28;5023966;28;20069;-52
2021/07/28 09:08:30;;;;;;;10.15;8.18;;;;;;;26.62;100.00;96123.00;5023708;28;20069;-51
2021/07/28 09:11:00;;;;;;;10.53;8.30;;;;;;;26.55;100.00;96130.50;5029106;28;20069;-55
2021/07/28 09:13:30;;;;;;;11.82;8.00;;;;;;;26.15;100.00;96135.16;5026238;28;21519;-53
2021/07/28 09:16:00;;;;;;;11.20;7.97;;;;;;;25.95;100.00;96140.31;5025205;28;20088;-51
2021/07/28 09:18:39;;;;;;;12.60;9.55;;;;;;;26.43;100.00;96144.97;5026346;28;20535;-57
2021/07/28 09:21:25;;;;;;;10.82;9.20;;;;;;;25.08;100.00;96153.22;5025812;28;20562;-56
2021/07/28 09:23:58;;;;;;;16.38;10.30;;;;;;;25.60;100.00;96154.88;5026782;28;20411;-50
2021/07/28 09:26:39;;;;;;;14.48;10.32;;;;;;;25.80;100.00;96155.22;5024982;28;20061;-53
2021/07/28 09:29:09;;;;;;;15.35;10.38;;;;;;;25.33;100.00;96154.75;5023373;28;20468;-50
2021/07/28 09:31:40;;;;;;;15.00;11.27;;;;;;;25.80;100.00;96151.69;5025582;28;20069;-54
2021/07/28 09:34:34;;;;;;;15.43;11.52;;;;;;;25.76;100.00;96145.13;5025707;28;20069;-54
2021/07/28 09:37:10;;;;;;;16.10;12.77;;;;;;;26.07;100.00;96142.88;5012901;28;20511;-52
2021/07/28 09:39:39;;;;;;;15.40;12.35;;;;;;;25.76;100.00;96151.34;5024433;28;20079;-54
2021/07/28 09:42:11;;;;;;;15.98;12.27;;;;;;;25.82;100.00;96146.06;5022920;28;20061;-55
2021/07/28 09:44:41;;;;;;;16.65;11.88;;;;;;;25.51;100.00;96165.31;5025987;28;20081;-56
2021/07/28 09:47:12;;;;;;;18.13;12.90;;;;;;;24.80;100.00;96180.22;5025690;28;20084;-53
2021/07/28 09:49:42;;;;;;;16.80;13.02;;;;;;;24.65;100.00;96180.78;5028186;28;20084;-49
2021/07/28 09:52:22;;;;;;;16.95;14.00;;;;;;;25.00;100.00;96177.91;5025725;28;20069;-53
2021/07/28 09:54:52;;;;;;;17.13;13.23;;;;;;;24.44;100.00;96176.88;5025700;28;20068;-53
2021/07/28 09:57:21;;;;;;;17.02;12.88;;;;;;;24.75;100.00;96172.88;5024758;28;20077;-54
2021/07/28 09:59:53;;;;;;;17.65;13.45;;;;;;;24.42;100.00;96178.97;5021248;28;20064;-51
2021/07/28 10:02:23;;;;;;;19.25;14.00;;;;;;;24.35;100.00;96176.38;5024798;28;20092;-52
2021/07/28 10:04:54;;;;;;;18.55;14.25;;;;;;;24.53;100.00;96169.19;5027931;28;20081;-56
2021/07/28 10:07:23;;;;;;;19.30;14.60;;;;;;;24.80;100.00;96166.75;5026253;28;20073;-55
2021/07/28 10:09:57;;;;;;;17.77;12.02;;;;;;;24.27;100.00;96168.66;5025804;28;20539;-56
2021/07/28 10:12:26;;;;;;;13.00;9.32;;;;;;;24.00;100.00;96181.03;5025527;28;20405;-54
2021/07/28 10:14:56;;;;;;;7.78;5.68;;;;;;;23.19;100.00;96205.78;5025474;28;20069;-55
2021/07/28 10:17:24;;;;;;;6.53;5.38;;;;;;;22.95;100.00;96217.47;5024775;28;20069;-55
2021/07/28 10:19:55;;;;;;;7.25;5.63;;;;;;;22.96;100.00;96230.72;5031878;28;20112;-57
2021/07/28 10:22:33;;;;;;;8.27;6.20;;;;;;;23.16;100.00;96233.13;5027106;28;20068;-55
2021/07/28 10:25:02;;;;;;;9.18;6.55;;;;;;;23.54;100.00;96228.41;5023939;28;21087;-53
2021/07/28 10:27:31;;;;;;;10.77;6.93;;;;;;;23.61;100.00;96237.19;5030014;28;20542;-54
2021/07/28 10:30:00;;;;;;;9.48;8.10;;;;;;;24.46;100.00;96246.69;5029840;28;20499;-57
2021/07/28 10:32:29;;;;;;;12.07;8.73;;;;;;;24.47;100.00;96249.19;5028987;28;20065;-56
2021/07/28 10:35:27;;;;;;;11.80;9.27;;;;;;;24.92;100.00;96237.66;5032002;28;20081;-52
2021/07/28 10:37:58;;;;;;;11.68;8.98;;;;;;;24.76;100.00;96236.53;5027932;28;21341;-54
2021/07/28 10:41:00;;;;;;;13.15;8.43;;;;;;;24.59;100.00;96236.47;5026490;28;20482;-54
2021/07/28 10:43:28;;;;;;;9.75;8.07;;;;;;;24.61;100.00;96236.25;4970421;28;20478;-59
2021/07/28 10:45:58;;;;;;;10.57;8.60;;;;;;;25.07;100.00;96239.81;4970943;28;20058;-59
2021/07/28 10:48:51;;;;;;;9.18;7.30;;;;;;;25.00;100.00;96233.75;4995095;28;20065;-57
2021/07/28 10:51:53;;;;;;;11.18;8.23;;;;;;;24.97;100.00;96234.22;5005382;28;20065;-53
2021/07/28 10:54:59;;;;;;;8.50;6.80;;;;;;;25.29;100.00;96227.31;5029189;28;20080;-55
2021/07/28 10:58:04;;;;;;;6.80;6.03;;;;;;;25.60;100.00;96222.41;5025934;28;20064;-55
2021/07/28 11:01:09;;;;;;;7.90;6.10;;;;;;;26.49;100.00;96224.28;5027225;28;20073;-53
2021/07/28 11:03:38;;;;;;;8.48;6.82;;;;;;;26.70;100.00;96218.06;5028236;28;20073;-54
2021/07/28 11:06:24;;;;;;;8.63;6.88;;;;;;;26.61;100.00;96222.28;5009529;28;20120;-52
2021/07/28 11:08:54;;;;;;;10.35;7.70;;;;;;;28.18;100.00;96218.56;5026845;28;20069;-57
2021/07/28 11:11:29;;;;;;;8.77;7.72;;;;;;;27.73;100.00;96224.47;5028595;28;20064;-55
2021/07/28 11:14:02;;;;;;;9.73;8.60;;;;;;;27.10;100.00;96230.41;5029476;28;20049;-54
2021/07/28 11:16:33;;;;;;;12.95;8.38;;;;;;;27.13;100.00;96235.34;5027914;28;20384;-52
2021/07/28 11:19:02;;;;;;;10.07;7.15;;;;;;;26.67;100.00;96236.66;5016180;28;20072;-56
2021/07/28 11:21:32;;;;;;;9.68;7.25;;;;;;;27.21;100.00;96240.28;5027745;28;20061;-51
2021/07/28 11:24:06;;;;;;;8.18;6.72;;;;;;;26.21;100.00;96246.84;5027195;28;20483;-56
2021/07/28 11:26:36;;;;;;;8.43;7.30;;;;;;;26.65;100.00;96231.53;5028117;28;20081;-55
2021/07/28 11:29:07;;;;;;;7.18;6.25;;;;;;;25.96;100.00;96236.50;5028202;28;20077;-57
2021/07/28 11:31:37;;;;;;;7.28;6.10;;;;;;;26.01;100.00;96234.69;5024423;28;20100;-55
2021/07/28 11:34:14;;;;;;;8.25;5.82;;;;;;;25.00;100.00;96242.66;5020991;28;20069;-54
2021/07/28 11:36:46;;;;;;;6.45;5.75;;;;;;;26.95;100.00;96238.38;5010069;28;20440;-56